Time;durP1;ratioP1;P1;durP2;ratioP2;P2;SDS_P1;SDS_P2;PMS_P1;PMS_P2;Temp;Humidity;BMP_temperature;BMP_pressure;BME280_temperature;BME280_humidity;BME280_pressure;Samples;Min_cycle;Max_cycle;Signal;HPM_P1;HPM_P2
2023/06/29 00:00:28;;;;;;;2.92;1.90;;;;;;;-145.06;0.00;60892.56;5944316;23;20320;-90
2023/06/29 00:03:07;;;;;;;3.88;2.05;;;;;;;-145.06;0.00;60892.56;5944906;23;20009;-94
2023/06/29 00:05:45;;;;;;;2.95;1.90;;;;;;;-145.06;0.00;60892.56;5943049;23;20389;-91
2023/06/29 00:08:25;;;;;;;2.60;1.80;;;;;;;-145.06;0.00;60892.56;5943068;23;20005;-92
2023/06/29 00:11:05;;;;;;;2.58;1.85;;;;;;;-145.06;0.00;60892.56;5937693;23;20013;-91
2023/06/29 00:13:44;;;;;;;2.80;1.95;;;;;;;-145.06;0.00;60892.56;5975035;23;20013;-92
2023/06/29 00:16:23;;;;;;;1.77;1.35;;;;;;;-145.06;0.00;60892.56;5941671;23;20009;-92
2023/06/29 00:19:02;;;;;;;3.22;1.85;;;;;;;21.05;0.00;60892.56;5942526;23;20438;-91
2023/06/29 00:21:41;;;;;;;2.85;2.03;;;;;;;20.97;0.00;60892.56;5942573;23;20009;-91
2023/06/29 00:24:20;;;;;;;3.22;2.13;;;;;;;-145.06;0.00;60892.56;5942959;23;20009;-91
2023/06/29 00:26:58;;;;;;;1.77;1.50;;;;;;;-145.06;0.00;60892.56;5944013;23;20009;-92
2023/06/29 00:29:42;;;;;;;2.42;1.65;;;;;;;-145.06;0.00;60892.56;5943418;23;20005;-92
2023/06/29 00:32:21;;;;;;;2.35;1.80;;;;;;;-145.06;0.00;60892.56;5943846;23;20313;-91
2023/06/29 00:35:00;;;;;;;2.25;1.73;;;;;;;20.81;0.00;60892.56;5942978;23;20009;-92
2023/06/29 00:37:40;;;;;;;2.70;1.90;;;;;;;20.76;0.00;60892.56;5942930;23;20321;-91
2023/06/29 00:40:19;;;;;;;3.70;1.55;;;;;;;-145.06;0.00;60892.56;5942757;23;20004;-91
2023/06/29 00:42:58;;;;;;;2.67;1.80;;;;;;;-145.06;0.00;60892.56;5943452;23;20001;-91
2023/06/29 00:45:37;;;;;;;2.08;1.40;;;;;;;-145.06;0.00;60892.56;5942211;23;20013;-91
2023/06/29 00:48:16;;;;;;;3.08;1.70;;;;;;;-145.06;0.00;60892.56;5966680;23;20013;-91
2023/06/29 00:50:55;;;;;;;2.58;1.80;;;;;;;20.65;0.00;60892.56;5942841;23;20008;-92
2023/06/29 00:53:34;;;;;;;2.40;1.87;;;;;;;-145.06;0.00;60892.56;5944108;23;20009;-92
2023/06/29 00:56:13;;;;;;;2.53;1.70;;;;;;;-145.06;0.00;60892.56;5943159;23;20315;-91
2023/06/29 00:58:52;;;;;;;2.88;1.80;;;;;;;-145.06;0.00;60892.56;5944867;23;20009;-92
2023/06/29 01:01:31;;;;;;;2.65;1.63;;;;;;;-145.06;0.00;60892.56;5945854;23;20028;-91
2023/06/29 01:04:17;;;;;;;2.45;1.70;;;;;;;-145.06;0.00;60892.56;5945396;23;20004;-92
2023/06/29 01:07:10;;;;;;;2.20;1.60;;;;;;;-145.06;0.00;60892.56;5945476;23;20376;-91
2023/06/29 01:09:52;;;;;;;2.42;1.73;;;;;;;-145.06;0.00;60892.56;5945191;23;20017;-92
2023/06/29 01:12:32;;;;;;;2.45;1.75;;;;;;;-145.06;0.00;60892.56;5944542;23;20009;-91
2023/06/29 01:15:11;;;;;;;2.10;1.60;;;;;;;-145.06;0.00;60892.56;5941997;23;20440;-91
2023/06/29 01:17:54;;;;;;;2.50;1.80;;;;;;;-145.06;0.00;60892.56;5950895;23;20068;-92
2023/06/29 01:20:33;;;;;;;2.45;1.65;;;;;;;-145.06;0.00;60892.56;5967776;23;20256;-92
2023/06/29 01:23:24;;;;;;;2.90;1.80;;;;;;;-145.06;0.00;60892.56;5946704;23;20029;-91
2023/06/29 01:26:05;;;;;;;3.08;1.67;;;;;;;-145.06;0.00;60892.56;5943767;23;20076;-92
2023/06/29 01:28:48;;;;;;;3.63;2.00;;;;;;;-145.06;0.00;60892.56;5945944;23;20317;-91
2023/06/29 01:31:27;;;;;;;2.20;1.55;;;;;;;-145.06;0.00;60892.56;5944228;23;20009;-92
2023/06/29 01:34:07;;;;;;;2.63;1.58;;;;;;;-145.06;0.00;60892.56;5945707;23;20452;-92
2023/06/29 01:36:49;;;;;;;2.58;1.83;;;;;;;-145.06;0.00;60892.56;5945315;23;20012;-91
2023/06/29 01:39:36;;;;;;;3.33;1.88;;;;;;;-145.06;0.00;60892.56;5943873;23;20005;-92
2023/06/29 01:42:19;;;;;;;2.25;1.65;;;;;;;-145.06;0.00;60892.56;5976280;23;20321;-91
2023/06/29 01:45:06;;;;;;;2.25;1.75;;;;;;;20.34;0.00;60892.56;5943864;23;20009;-92
2023/06/29 01:47:45;;;;;;;2.20;1.65;;;;;;;-145.06;0.00;60892.56;5967797;23;20008;-91
2023/06/29 01:50:25;;;;;;;2.87;1.80;;;;;;;-145.06;0.00;60892.56;5944042;23;20356;-91
2023/06/29 01:53:04;;;;;;;2.95;1.67;;;;;;;-145.06;0.00;60892.56;5945545;23;20013;-91
2023/06/29 01:55:43;;;;;;;2.20;1.65;;;;;;;-145.06;0.00;60892.56;5942867;23;20013;-91
2023/06/29 01:58:22;;;;;;;1.67;1.30;;;;;;;-145.06;0.00;60892.56;5945207;23;20005;-93
2023/06/29 02:01:01;;;;;;;2.10;1.70;;;;;;;-145.06;0.00;60892.56;5943758;23;20424;-92
2023/06/29 02:03:41;;;;;;;2.17;1.60;;;;;;;-145.06;0.00;60892.56;5943527;23;20317;-91
2023/06/29 02:06:20;;;;;;;2.67;1.70;;;;;;;-145.06;0.00;60892.56;5944026;23;20013;-92
2023/06/29 02:08:59;;;;;;;2.50;1.80;;;;;;;-145.06;0.00;60892.56;5943906;23;20017;-91
2023/06/29 02:11:38;;;;;;;2.45;1.70;;;;;;;-145.06;0.00;60892.56;5944987;23;20005;-92
2023/06/29 02:14:17;;;;;;;1.83;1.57;;;;;;;-145.06;0.00;60892.56;5944961;23;20009;-91
2023/06/29 02:16:56;;;;;;;2.07;1.70;;;;;;;-145.06;0.00;60892.56;5944334;23;20240;-92
2023/06/29 02:19:35;;;;;;;3.00;1.53;;;;;;;-145.06;0.00;60892.56;5944644;23;20440;-92
2023/06/29 02:22:14;;;;;;;2.03;1.50;;;;;;;21.08;0.00;60892.56;5945460;23;20317;-91
2023/06/29 02:24:53;;;;;;;1.73;1.42;;;;;;;-145.06;0.00;60892.56;5943687;23;20009;-92
2023/06/29 02:27:32;;;;;;;2.25;1.67;;;;;;;-145.06;0.00;60892.56;5967422;23;20040;-92
2023/06/29 02:30:11;;;;;;;2.38;1.70;;;;;;;-145.06;0.00;60892.56;5944550;23;20012;-91
2023/06/29 02:32:50;;;;;;;2.03;1.73;;;;;;;-145.06;0.00;60892.56;5974844;23;20005;-91
2023/06/29 02:35:29;;;;;;;2.22;1.63;;;;;;;-145.06;0.00;60892.56;5944812;23;20005;-91
2023/06/29 02:38:08;;;;;;;1.85;1.55;;;;;;;-145.06;0.00;60892.56;5941972;23;20009;-91
2023/06/29 02:40:47;;;;;;;2.13;1.52;;;;;;;-145.06;0.00;60892.56;5943535;23;20373;-91
2023/06/29 02:43:26;;;;;;;2.20;1.67;;;;;;;-145.06;0.00;60892.56;5966857;23;20675;-91
2023/06/29 02:46:05;;;;;;;2.40;1.55;;;;;;;-145.06;0.00;60892.56;5975045;23;20009;-91
2023/06/29 02:48:44;;;;;;;2.42;1.80;;;;;;;-145.06;0.00;60892.56;5975883;23;20012;-91
2023/06/29 02:51:23;;;;;;;3.03;1.80;;;;;;;-145.06;0.00;60892.56;5943472;23;20024;-91
2023/06/29 02:54:02;;;;;;;1.85;1.65;;;;;;;-145.06;0.00;60892.56;5974852;23;20448;-91
2023/06/29 02:56:41;;;;;;;2.20;1.45;;;;;;;-145.06;0.00;60892.56;5944169;23;20317;-92
2023/06/29 02:59:20;;;;;;;1.92;1.45;;;;;;;-145.06;0.00;60892.56;5974260;23;20483;-92
2023/06/29 03:01:59;;;;;;;2.22;1.73;;;;;;;20.26;0.00;60892.56;5942527;23;20428;-92
2023/06/29 03:04:38;;;;;;;3.10;1.42;;;;;;;-145.06;0.00;60892.56;5943707;23;20008;-92
2023/06/29 03:07:17;;;;;;;3.90;1.42;;;;;;;-145.06;0.00;60892.56;5943297;23;20436;-92
2023/06/29 03:09:56;;;;;;;3.05;1.65;;;;;;;-145.06;0.00;60892.56;5965888;23;20033;-92
2023/06/29 03:12:35;;;;;;;1.80;1.25;;;;;;;-145.06;0.00;60892.56;5944706;23;20005;-92
2023/06/29 03:15:14;;;;;;;2.05;1.48;;;;;;;-145.06;0.00;60892.56;5942188;23;20005;-93
2023/06/29 03:17:53;;;;;;;1.33;1.20;;;;;;;-145.06;0.00;60892.56;5945064;23;20013;-92
2023/06/29 03:20:32;;;;;;;2.25;1.60;;;;;;;-145.06;0.00;60892.56;5941720;23;20008;-92
2023/06/29 03:23:11;;;;;;;3.95;1.40;;;;;;;-145.06;0.00;60892.56;5942836;23;20360;-91
2023/06/29 03:25:50;;;;;;;5.68;1.70;;;;;;;-145.06;0.00;60892.56;5943623;23;20009;-91
2023/06/29 03:28:29;;;;;;;1.98;1.60;;;;;;;20.16;0.00;60892.56;5944098;23;20679;-91
2023/06/29 03:31:08;;;;;;;2.15;1.60;;;;;;;-145.06;0.00;60892.56;5943575;23;20013;-92
2023/06/29 03:33:47;;;;;;;2.35;1.40;;;;;;;-145.06;0.00;60892.56;5944868;23;20009;-92
2023/06/29 03:36:26;;;;;;;2.75;1.50;;;;;;;-145.06;0.00;60892.56;5943753;23;20064;-91
2023/06/29 03:39:05;;;;;;;2.83;1.55;;;;;;;21.08;0.00;60892.56;5943013;23;20009;-92
2023/06/29 03:41:44;;;;;;;2.47;1.58;;;;;;;-145.06;0.00;60892.56;5944792;23;20507;-92
2023/06/29 03:44:24;;;;;;;2.65;1.92;;;;;;;-145.06;0.00;60892.56;5967060;23;20029;-91
2023/06/29 03:47:03;;;;;;;2.30;1.70;;;;;;;-145.06;0.00;60892.56;5946061;23;20467;-91
2023/06/29 03:49:43;;;;;;;2.42;1.75;;;;;;;-145.06;0.00;60892.56;5943624;23;20005;-92
2023/06/29 03:52:22;;;;;;;2.15;1.55;;;;;;;-145.06;0.00;60892.56;5944468;23;20005;-91
2023/06/29 03:55:01;;;;;;;2.25;1.60;;;;;;;-145.06;0.00;60892.56;5943714;23;20032;-91
2023/06/29 03:57:40;;;;;;;2.08;1.40;;;;;;;-145.06;0.00;60892.56;5944865;23;20013;-92
2023/06/29 04:00:19;;;;;;;3.90;1.98;;;;;;;-145.06;0.00;60892.56;5943536;23;20013;-91
2023/06/29 04:02:58;;;;;;;1.92;1.38;;;;;;;-145.06;0.00;60892.56;5944603;23;20024;-92
2023/06/29 04:05:37;;;;;;;1.95;1.60;;;;;;;-145.06;0.00;60892.56;5943229;23;20100;-92
2023/06/29 04:08:16;;;;;;;2.05;1.52;;;;;;;-145.06;0.00;60892.56;5944282;23;20005;-92
2023/06/29 04:10:55;;;;;;;4.88;2.08;;;;;;;-145.06;0.00;60892.56;5936251;23;20116;-92
2023/06/29 04:13:34;;;;;;;3.35;1.95;;;;;;;-145.06;0.00;60892.56;5935294;23;20081;-92
2023/06/29 04:16:13;;;;;;;2.42;1.63;;;;;;;-145.06;0.00;60892.56;5934971;23;20013;-91
2023/06/29 04:18:52;;;;;;;1.90;1.38;;;;;;;-145.06;0.00;60892.56;5935664;23;20456;-91
2023/06/29 04:21:31;;;;;;;1.90;1.52;;;;;;;-145.06;0.00;60892.56;5935942;23;20002;-92
2023/06/29 04:24:13;;;;;;;2.75;1.40;;;;;;;-145.06;0.00;60892.56;5936372;23;20013;-92
2023/06/29 04:26:52;;;;;;;2.03;1.38;;;;;;;-145.06;0.00;60892.56;5943947;23;20044;-91
2023/06/29 04:29:31;;;;;;;4.35;1.65;;;;;;;-145.06;0.00;60892.56;5945539;23;20076;-91
2023/06/29 04:32:10;;;;;;;3.40;1.40;;;;;;;-145.06;0.00;60892.56;5948480;23;20006;-92
2023/06/29 04:34:52;;;;;;;2.40;1.70;;;;;;;-145.06;0.00;60892.56;5965802;23;19994;-93
2023/06/29 04:37:41;;;;;;;3.22;1.52;;;;;;;-145.06;0.00;60892.56;5954510;23;20013;-93
2023/06/29 04:40:20;;;;;;;1.88;1.55;;;;;;;-145.06;0.00;60892.56;5942059;23;20009;-92
2023/06/29 04:42:59;;;;;;;2.30;1.50;;;;;;;20.48;0.00;60892.56;5941875;23;20088;-93
2023/06/29 04:45:40;;;;;;;2.03;1.33;;;;;;;-145.06;0.00;60892.56;5952315;23;20010;-91
2023/06/29 04:48:24;;;;;;;2.85;1.63;;;;;;;-145.06;0.00;60892.56;5940879;23;20708;-92
2023/06/29 04:51:05;;;;;;;1.38;1.17;;;;;;;-145.06;0.00;60892.56;5941164;23;20033;-92
2023/06/29 04:53:44;;;;;;;1.95;1.42;;;;;;;-145.06;0.00;60892.56;5942349;23;20005;-91
2023/06/29 04:56:23;;;;;;;1.98;1.35;;;;;;;-145.06;0.00;60892.56;5942759;23;20010;-92
2023/06/29 04:59:02;;;;;;;2.08;1.33;;;;;;;-145.06;0.00;60892.56;5941567;23;20005;-92
2023/06/29 05:01:41;;;;;;;1.80;1.38;;;;;;;-145.06;0.00;60892.56;5940666;23;20009;-92
2023/06/29 05:04:20;;;;;;;2.05;1.33;;;;;;;20.75;0.00;60892.56;5943132;23;20069;-92
2023/06/29 05:07:00;;;;;;;1.83;1.30;;;;;;;-145.06;0.00;60892.56;5943236;23;20009;-91
2023/06/29 05:09:39;;;;;;;3.47;1.70;;;;;;;20.80;0.00;60892.56;5936123;23;20017;-92
2023/06/29 05:12:18;;;;;;;2.05;1.58;;;;;;;20.82;0.00;60892.56;5937272;23;20032;-92
2023/06/29 05:14:57;;;;;;;2.00;1.30;;;;;;;-145.06;0.00;60892.56;5938124;23;20009;-92
2023/06/29 05:17:37;;;;;;;2.20;1.23;;;;;;;-145.06;0.00;60892.56;5940788;23;20013;-92
2023/06/29 05:20:17;;;;;;;1.75;1.33;;;;;;;20.88;0.00;60892.56;5936856;23;20139;-93
2023/06/29 05:22:56;;;;;;;3.38;1.40;;;;;;;20.92;0.00;60892.56;5939044;23;20317;-92
2023/06/29 05:25:36;;;;;;;1.70;1.48;;;;;;;20.93;0.00;60892.56;5937105;23;20013;-92
2023/06/29 05:28:15;;;;;;;1.98;1.27;;;;;;;-145.06;0.00;60892.56;5937607;23;20013;-92
2023/06/29 05:30:54;;;;;;;2.40;1.63;;;;;;;-145.06;0.00;60892.56;5937858;23;20006;-91
2023/06/29 05:33:33;;;;;;;1.85;1.50;;;;;;;-145.06;0.00;60892.56;5938233;23;20010;-91
2023/06/29 05:36:12;;;;;;;2.30;1.27;;;;;;;21.03;0.00;60892.56;5937718;23;20088;-93
2023/06/29 05:38:51;;;;;;;1.88;1.42;;;;;;;21.03;0.00;60892.56;5938026;23;20040;-92
2023/06/29 05:41:31;;;;;;;1.67;1.30;;;;;;;-145.06;0.00;60892.56;5937556;23;20009;-91
2023/06/29 05:44:10;;;;;;;1.92;1.58;;;;;;;41.86;0.00;60892.56;5949119;23;20009;-93
2023/06/29 05:46:49;;;;;;;1.52;1.20;;;;;;;-145.06;0.00;60892.56;5939843;23;20088;-92
2023/06/29 05:49:28;;;;;;;3.60;1.25;;;;;;;-145.06;0.00;60892.56;5938668;23;20014;-92
2023/06/29 05:52:07;;;;;;;2.13;1.75;;;;;;;104.26;0.00;60892.56;5940247;23;20013;-91
2023/06/29 05:54:46;;;;;;;1.95;1.25;;;;;;;-145.06;0.00;60892.56;5937778;23;20013;-92
2023/06/29 05:57:25;;;;;;;1.77;1.35;;;;;;;-145.06;0.00;60892.56;5939974;23;20005;-93
2023/06/29 06:00:11;;;;;;;2.53;1.25;;;;;;;-145.06;0.00;60892.56;5939146;23;20029;-92
2023/06/29 06:02:50;;;;;;;1.50;1.17;;;;;;;-145.06;0.00;60892.56;5939038;23;20032;-92
2023/06/29 06:05:29;;;;;;;2.35;1.17;;;;;;;-145.06;0.00;60892.56;5938800;23;20373;-93
2023/06/29 06:08:08;;;;;;;1.23;1.13;;;;;;;-145.06;0.00;60892.56;5939096;23;20005;-93
2023/06/29 06:10:47;;;;;;;1.63;1.17;;;;;;;-145.06;0.00;60892.56;5938625;23;20014;-92
2023/06/29 06:13:26;;;;;;;2.22;1.20;;;;;;;-145.06;0.00;60892.56;5939223;23;20033;-92
2023/06/29 06:16:06;;;;;;;2.08;1.35;;;;;;;-145.06;0.00;60892.56;5938860;23;20001;-92
2023/06/29 06:18:44;;;;;;;2.17;1.27;;;;;;;-145.06;0.00;60892.56;5940108;23;20010;-92
2023/06/29 06:21:26;;;;;;;1.87;1.30;;;;;;;-145.06;0.00;60892.56;5938151;23;20002;-92
2023/06/29 06:24:05;;;;;;;1.85;1.15;;;;;;;-145.06;0.00;60892.56;5939809;23;20253;-92
2023/06/29 06:26:45;;;;;;;;;;;;;;;-145.06;0.00;60892.56;5938993;23;20318;-93
2023/06/29 06:29:24;;;;;;;1.70;1.17;;;;;;;187.52;0.00;60892.56;5936036;23;19908;-92
2023/06/29 06:32:04;;;;;;;1.33;1.20;;;;;;;-145.06;0.00;60892.56;5937621;23;20013;-92
2023/06/29 06:34:43;;;;;;;1.08;0.90;;;;;;;-145.06;0.00;60892.56;5939404;23;20005;-93
2023/06/29 06:37:23;;;;;;;3.00;1.00;;;;;;;-145.06;0.00;60892.56;5937852;23;20013;-93
2023/06/29 06:40:07;;;;;;;1.40;1.00;;;;;;;-145.06;0.00;60892.56;5938990;23;20009;-92
2023/06/29 06:42:46;;;;;;;2.03;1.20;;;;;;;-145.06;0.00;60892.56;5937853;23;20005;-94
2023/06/29 06:45:25;;;;;;;1.77;1.25;;;;;;;-145.06;0.00;60892.56;5937995;23;20009;-93
2023/06/29 06:48:04;;;;;;;1.40;1.10;;;;;;;-145.06;0.00;60892.56;5937623;23;20362;-91
2023/06/29 06:50:43;;;;;;;1.10;0.90;;;;;;;-145.06;0.00;60892.56;5944817;23;20432;-94
2023/06/29 06:53:51;;;;;;;1.75;1.08;;;;;;;-145.06;0.00;60892.56;5948473;23;20001;-94
2023/06/29 06:56:33;;;;;;;1.98;1.15;;;;;;;-145.06;0.00;60892.56;5949129;23;20013;-93
2023/06/29 06:59:18;;;;;;;1.58;0.93;;;;;;;-145.06;0.00;60892.56;5949878;23;20441;-93
2023/06/29 07:02:44;;;;;;;1.55;1.25;;;;;;;-145.06;0.00;60892.56;5949092;23;20006;-95
2023/06/29 07:05:33;;;;;;;2.25;1.05;;;;;;;-145.06;0.00;60892.56;5949518;23;20005;-93
2023/06/29 07:08:44;;;;;;;1.25;1.00;;;;;;;-145.06;0.00;60892.56;5949280;23;20009;-95
2023/06/29 07:14:55;;;;;;;1.38;1.20;;;;;;;-145.06;0.00;60892.56;5983372;23;20009;-94
2023/06/29 07:18:36;;;;;;;;;;;;;;;;;;;;;
2023/06/29 07:24:53;;;;;;;1.17;1.00;;;;;;;-145.06;0.00;60892.56;5982929;23;20009;-93
2023/06/29 07:28:11;;;;;;;2.30;1.00;;;;;;;-145.06;0.00;60892.56;5938403;23;20012;-94
2023/06/29 07:31:00;;;;;;;2.17;1.20;;;;;;;-145.06;0.00;60892.56;5956960;23;20029;-95
2023/06/29 07:37:26;;;;;;;1.33;0.95;;;;;;;-145.06;0.00;60892.56;5988860;23;20009;-94
2023/06/29 07:40:39;;;;;;;1.90;1.25;;;;;;;-145.06;0.00;60892.56;5957021;23;20009;-95
2023/06/29 08:00:50;;;;;;;;;;;;;;;;;;;;;
2023/06/29 08:08:13;;;;;;;;;;;;;;;;;;;;;
2023/06/29 08:10:59;;;;;;;1.63;1.30;;;;;;;-145.06;0.00;60892.56;5954553;23;20001;-94
2023/06/29 08:14:22;;;;;;;1.75;1.20;;;;;;;-145.06;0.00;60892.56;5956977;23;20009;-93
2023/06/29 08:17:35;;;;;;;1.90;1.27;;;;;;;-145.06;0.00;60892.56;5957843;23;20005;-93
2023/06/29 08:21:06;;;;;;;1.33;1.02;;;;;;;-145.06;0.00;60892.56;5956370;23;20013;-94
2023/06/29 08:23:49;;;;;;;1.57;1.10;;;;;;;-145.06;0.00;60892.56;5855558;23;20025;-94
2023/06/29 08:27:08;;;;;;;;;;;;;;;;;;;;;
2023/06/29 08:29:55;;;;;;;1.70;1.02;;;;;;;-145.06;0.00;60892.56;5987630;23;20012;-94
2023/06/29 08:33:13;;;;;;;1.30;1.00;;;;;;;-145.06;0.00;60892.56;5956427;23;20017;-94
2023/06/29 08:36:51;;;;;;;1.95;1.10;;;;;;;-145.06;0.00;60892.56;5956654;23;20032;-95
2023/06/29 08:43:38;;;;;;;1.75;1.17;;;;;;;-145.06;0.00;60892.56;5934530;23;20005;-94
2023/06/29 08:53:05;;;;;;;1.73;1.15;;;;;;;-145.06;0.00;60892.56;5983316;23;20005;-96
2023/06/29 08:55:47;;;;;;;1.38;1.10;;;;;;;-145.06;0.00;60892.56;5948926;23;20013;-94
2023/06/29 08:58:36;;;;;;;2.15;1.20;;;;;;;-145.06;0.00;60892.56;5948517;23;20013;-94
2023/06/29 09:01:48;;;;;;;1.73;1.25;;;;;;;-145.06;0.00;60892.56;5948127;23;20010;-95
2023/06/29 09:04:36;;;;;;;1.85;1.23;;;;;;;-145.06;0.00;60892.56;5948465;23;20088;-95
2023/06/29 09:08:00;;;;;;;;;;;;;;;;;;;;;
2023/06/29 09:10:53;;;;;;;1.90;1.30;;;;;;;-145.06;0.00;60892.56;5957523;23;20001;-94
2023/06/29 09:14:32;;;;;;;1.98;1.40;;;;;;;-145.06;0.00;60892.56;5948650;23;20010;-94
2023/06/29 09:17:14;;;;;;;1.63;1.30;;;;;;;-145.06;0.00;60892.56;5946167;23;20061;-92
2023/06/29 09:19:55;;;;;;;2.38;1.70;;;;;;;-145.06;0.00;60892.56;5944612;23;20009;-92
2023/06/29 09:22:35;;;;;;;1.77;1.63;;;;;;;-145.06;0.00;60892.56;5944767;23;20009;-91
2023/06/29 09:25:14;;;;;;;2.22;1.52;;;;;;;-145.06;0.00;60892.56;5944365;23;20009;-92
2023/06/29 09:28:03;;;;;;;1.90;1.58;;;;;;;-145.06;0.00;60892.56;5944802;23;20076;-93
2023/06/29 09:30:42;;;;;;;;;;;;;;;-145.06;0.00;60892.56;5945336;23;20005;-91
2023/06/29 09:33:25;;;;;;;2.15;1.27;;;;;;;62.66;0.00;60892.56;5945099;23;20324;-92
2023/06/29 09:36:06;;;;;;;1.90;1.15;;;;;;;-145.06;0.00;60892.56;5957147;23;20013;-92
2023/06/29 09:38:47;;;;;;;1.73;1.30;;;;;;;-145.06;0.00;60892.56;5946191;23;20010;-92
2023/06/29 09:41:26;;;;;;;1.48;1.00;;;;;;;-145.06;0.00;60892.56;5944691;23;20013;-92
2023/06/29 09:44:06;;;;;;;2.25;1.30;;;;;;;-145.06;0.00;60892.56;5945583;23;20037;-91
2023/06/29 09:46:50;;;;;;;1.85;1.15;;;;;;;-145.06;0.00;60892.56;5946251;23;20445;-93
2023/06/29 09:49:30;;;;;;;1.70;1.30;;;;;;;-145.06;0.00;60892.56;5945796;23;20009;-92
2023/06/29 09:52:09;;;;;;;1.52;1.20;;;;;;;-145.06;0.00;60892.56;5948065;23;20009;-93
2023/06/29 09:54:51;;;;;;;1.83;1.30;;;;;;;-145.06;0.00;60892.56;5953712;23;20009;-92
2023/06/29 09:57:30;;;;;;;1.73;1.27;;;;;;;-145.06;0.00;60892.56;5954036;23;20400;-92
2023/06/29 10:00:20;;;;;;;2.40;1.30;;;;;;;-145.06;0.00;60892.56;5954907;23;20013;-94
2023/06/29 10:02:59;;;;;;;1.52;1.13;;;;;;;-145.06;0.00;60892.56;5954515;23;20005;-93
2023/06/29 10:05:41;;;;;;;1.98;1.13;;;;;;;-145.06;0.00;60892.56;5955108;23;20009;-93
2023/06/29 10:08:22;;;;;;;1.75;1.38;;;;;;;41.86;0.00;60892.56;5956566;23;20017;-93
2023/06/29 10:11:03;;;;;;;2.45;1.60;;;;;;;-145.06;0.00;60892.56;5952772;23;20009;-92
2023/06/29 10:13:49;;;;;;;2.17;1.30;;;;;;;-145.06;0.00;60892.56;5954537;23;20009;-91
2023/06/29 10:16:35;;;;;;;2.00;1.30;;;;;;;-145.06;0.00;60892.56;5953848;23;20008;-93
2023/06/29 10:19:19;;;;;;;2.67;1.42;;;;;;;-145.06;0.00;60892.56;5954429;23;20005;-92
2023/06/29 10:22:04;;;;;;;1.25;1.00;;;;;;;-145.06;0.00;60892.56;5955187;23;20009;-92
2023/06/29 10:24:50;;;;;;;1.48;1.20;;;;;;;25.66;0.00;60892.56;5986515;23;20009;-92
2023/06/29 10:27:33;;;;;;;2.03;1.30;;;;;;;-145.06;0.00;60892.56;5954207;23;20009;-92
2023/06/29 10:30:19;;;;;;;2.10;1.50;;;;;;;-145.06;0.00;60892.56;5953952;23;20009;-92
2023/06/29 10:32:58;;;;;;;1.42;1.20;;;;;;;-145.06;0.00;60892.56;5954936;23;20001;-93
2023/06/29 10:35:37;;;;;;;1.90;1.23;;;;;;;-145.06;0.00;60892.56;5955199;23;20005;-93
2023/06/29 10:38:16;;;;;;;2.33;1.30;;;;;;;-145.06;0.00;60892.56;5954115;23;20012;-91
2023/06/29 10:44:01;;;;;;;1.50;1.30;;;;;;;-145.06;0.00;60892.56;5985740;23;20032;-94
2023/06/29 10:46:47;;;;;;;1.75;1.42;;;;;;;-145.06;0.00;60892.56;5954289;23;20460;-91
2023/06/29 10:49:57;;;;;;;2.42;1.50;;;;;;;-145.06;0.00;60892.56;5953550;23;20001;-91
2023/06/29 10:52:38;;;;;;;2.47;1.52;;;;;;;-145.06;0.00;60892.56;5952224;23;20061;-91
2023/06/29 10:55:17;;;;;;;3.60;1.70;;;;;;;-145.06;0.00;60892.56;5942876;23;20010;-93
2023/06/29 10:58:01;;;;;;;2.72;1.80;;;;;;;-145.06;0.00;60892.56;5943219;23;20005;-92
2023/06/29 11:00:41;;;;;;;1.98;1.48;;;;;;;-145.06;0.00;60892.56;5943688;23;20476;-91
2023/06/29 11:03:20;;;;;;;;;;;;;;;-145.06;0.00;60892.56;5943652;23;20033;-93
2023/06/29 11:06:01;;;;;;;;;;;;;;;-145.06;0.00;60892.56;5944069;23;20319;-93
2023/06/29 11:08:40;;;;;;;2.28;1.58;;;;;;;-145.06;0.00;60892.56;5950612;23;20256;-96
2023/06/29 11:11:21;;;;;;;1.48;1.38;;;;;;;-145.06;0.00;60892.56;5967181;23;20010;-95
2023/06/29 11:14:02;;;;;;;2.03;1.40;;;;;;;-145.06;0.00;60892.56;5960673;23;20017;-93
2023/06/29 11:16:41;;;;;;;2.17;1.60;;;;;;;-145.06;0.00;60892.56;5945389;23;20033;-94
2023/06/29 11:19:25;;;;;;;1.80;1.52;;;;;;;-145.06;0.00;60892.56;5943881;23;20507;-95
2023/06/29 11:22:04;;;;;;;2.38;1.83;;;;;;;-145.06;0.00;60892.56;5944547;23;20037;-93
2023/06/29 11:24:44;;;;;;;3.20;1.77;;;;;;;-145.06;0.00;60892.56;5944866;23;20005;-93
2023/06/29 11:27:23;;;;;;;3.00;1.92;;;;;;;-145.06;0.00;60892.56;5950154;23;20424;-93
2023/06/29 11:30:05;;;;;;;2.30;1.63;;;;;;;-145.06;0.00;60892.56;5950373;23;20009;-92
2023/06/29 11:32:51;;;;;;;2.67;2.00;;;;;;;-145.06;0.00;60892.56;5950180;23;20009;-92
2023/06/29 11:35:31;;;;;;;3.33;2.10;;;;;;;-145.06;0.00;60892.56;5948888;23;20014;-93
2023/06/29 11:38:10;;;;;;;2.50;1.75;;;;;;;-145.06;0.00;60892.56;5950577;23;20009;-92
2023/06/29 11:40:49;;;;;;;4.47;1.98;;;;;;;-145.06;0.00;60892.56;5950587;23;20440;-92
2023/06/29 11:43:32;;;;;;;3.60;2.33;;;;;;;-145.06;0.00;60892.56;5961692;23;20010;-93
2023/06/29 11:46:11;;;;;;;3.05;2.20;;;;;;;-145.06;0.00;60892.56;5949965;23;20080;-92
2023/06/29 11:48:56;;;;;;;2.58;1.98;;;;;;;-145.06;0.00;60892.56;5949879;23;20469;-93
2023/06/29 11:51:38;;;;;;;3.42;2.35;;;;;;;-145.06;0.00;60892.56;5950524;23;20013;-93
2023/06/29 11:54:18;;;;;;;2.70;1.95;;;;;;;-145.06;0.00;60892.56;5946399;23;20009;-93
2023/06/29 11:56:56;;;;;;;;;;;;;;;-145.06;0.00;60892.56;5955749;23;20005;-91
2023/06/29 11:59:39;;;;;;;2.30;1.73;;;;;;;-145.06;0.00;60892.56;5956178;23;19904;-92
2023/06/29 12:02:19;;;;;;;4.03;2.38;;;;;;;-145.06;0.00;60892.56;5955002;23;20009;-92
2023/06/29 12:04:59;;;;;;;;;;;;;;;-145.06;0.00;60892.56;5957133;23;20012;-93
2023/06/29 12:07:43;;;;;;;2.72;2.40;;;;;;;-145.06;0.00;60892.56;5955334;23;20168;-93
2023/06/29 12:10:24;;;;;;;4.32;2.50;;;;;;;-145.06;0.00;60892.56;5954963;23;20012;-93
2023/06/29 12:13:03;;;;;;;3.20;2.33;;;;;;;-145.06;0.00;60892.56;5955825;23;20060;-92
2023/06/29 12:15:45;;;;;;;2.72;2.20;;;;;;;-145.06;0.00;60892.56;5955232;23;20459;-93
2023/06/29 12:18:27;;;;;;;2.90;2.20;;;;;;;-145.06;0.00;60892.56;5956783;23;20013;-93
2023/06/29 12:21:06;;;;;;;3.83;2.33;;;;;;;-145.06;0.00;60892.56;5957711;23;20005;-93
2023/06/29 12:23:46;;;;;;;2.95;2.33;;;;;;;-145.06;0.00;60892.56;5956339;23;20001;-90
2023/06/29 12:26:25;;;;;;;3.72;2.83;;;;;;;-145.06;0.00;60892.56;5956541;23;20001;-90
2023/06/29 12:29:04;;;;;;;3.70;2.70;;;;;;;-145.06;0.00;60892.56;5987925;23;20347;-90
2023/06/29 12:31:43;;;;;;;4.10;2.85;;;;;;;-145.06;0.00;60892.56;5956941;23;20317;-89
2023/06/29 12:34:22;;;;;;;4.15;3.30;;;;;;;25.84;0.00;60892.56;5957910;23;20084;-90
2023/06/29 12:37:02;;;;;;;;;;;;;;;-145.06;0.00;60892.56;5957738;23;20008;-91
2023/06/29 12:39:43;;;;;;;;;;;;;;;-145.06;0.00;60892.56;5957734;23;20157;-91
2023/06/29 12:42:23;;;;;;;4.72;3.28;;;;;;;-145.06;0.00;60892.56;5956232;23;19939;-91
2023/06/29 12:45:04;;;;;;;4.93;3.35;;;;;;;-145.06;0.00;60892.56;5956063;23;20009;-91
2023/06/29 12:47:43;;;;;;;5.57;3.67;;;;;;;-145.06;0.00;60892.56;5956315;23;20005;-91
2023/06/29 12:50:23;;;;;;;;;;;;;;;-145.06;0.00;60892.56;5957163;23;20009;-91
2023/06/29 12:53:02;;;;;;;4.13;2.83;;;;;;;-145.06;0.00;60892.56;5957667;23;19908;-91
2023/06/29 12:55:41;;;;;;;4.40;3.40;;;;;;;-145.06;0.00;60892.56;5952103;23;20009;-91
2023/06/29 12:58:20;;;;;;;5.18;3.70;;;;;;;-145.06;0.00;60892.56;5950962;23;20006;-91
2023/06/29 13:00:59;;;;;;;3.72;2.83;;;;;;;-145.06;0.00;60892.56;5951391;23;20088;-90
2023/06/29 13:03:38;;;;;;;3.97;3.47;;;;;;;-145.06;0.00;60892.56;5950468;23;20255;-91
2023/06/29 13:06:17;;;;;;;4.70;3.40;;;;;;;-145.06;0.00;60892.56;5950002;23;20494;-91
2023/06/29 13:08:56;;;;;;;3.97;3.42;;;;;;;-145.06;0.00;60892.56;5950918;23;20005;-90
2023/06/29 13:11:35;;;;;;;3.83;3.25;;;;;;;-145.06;0.00;60892.56;5949690;23;20014;-92
2023/06/29 13:14:14;;;;;;;;;;;;;;;-145.06;0.00;60892.56;5963237;23;20006;-93
2023/06/29 13:16:56;;;;;;;3.47;2.90;;;;;;;-145.06;0.00;60892.56;5951939;23;19908;-91
2023/06/29 13:19:36;;;;;;;4.47;3.40;;;;;;;-145.06;0.00;60892.56;5952983;23;20452;-90
2023/06/29 13:22:18;;;;;;;4.90;3.20;;;;;;;-145.06;0.00;60892.56;5952531;23;20010;-91
2023/06/29 13:25:00;;;;;;;6.63;3.65;;;;;;;-145.06;0.00;60892.56;5952088;23;20001;-91
2023/06/29 13:27:42;;;;;;;4.18;3.13;;;;;;;-145.06;0.00;60892.56;5949628;23;20009;-91
2023/06/29 13:30:23;;;;;;;5.75;3.65;;;;;;;-145.06;0.00;60892.56;5950111;23;20009;-91
2023/06/29 13:33:03;;;;;;;4.20;3.42;;;;;;;-145.06;0.00;60892.56;5949179;23;20009;-91
2023/06/29 13:35:42;;;;;;;;;;;;;;;-145.06;0.00;60892.56;5951135;23;20009;-91